Terminal Aerodrome Forecast
Issued by NWS

Home | Current Version | Previous Version | Text Only | Print | Product List | Glossary On
Versions: 1 2 3 4 5 6 7 8 9 10 11 12 13
000
FTUS44 KBMX 211700
TAFEET
TAF
KEET 211720Z 2118/2218 09006KT P6SM BKN150
     FM220000 00000KT P6SM BKN150
     FM221500 11007KT P6SM SCT150=

USA.gov is the U.S. government's official web portal to all federal, state and local government web resources and services.